sensor_id;sensor_type;location;lat;lon;timestamp;temperature;humidity
39099;DHT22;24844;52.380;7.018;2023-02-01T00:02:02;4.80;99.90
39099;DHT22;24844;52.380;7.018;2023-02-01T00:04:28;5.00;99.90
39099;DHT22;24844;52.380;7.018;2023-02-01T00:06:54;4.90;99.90
39099;DHT22;24844;52.380;7.018;2023-02-01T00:09:19;4.80;99.90
39099;DHT22;24844;52.380;7.018;2023-02-01T00:11:45;4.80;99.90
39099;DHT22;24844;52.380;7.018;2023-02-01T00:14:11;4.90;99.90
39099;DHT22;24844;52.380;7.018;2023-02-01T00:16:36;5.00;99.90
39099;DHT22;24844;52.380;7.018;2023-02-01T00:19:12;5.10;99.90
39099;DHT22;24844;52.380;7.018;2023-02-01T00:21:38;5.10;99.90
39099;DHT22;24844;52.380;7.018;2023-02-01T00:24:03;5.20;99.90
39099;DHT22;24844;52.380;7.018;2023-02-01T00:26:43;5.00;99.90
39099;DHT22;24844;52.380;7.018;2023-02-01T00:29:15;5.00;99.90
39099;DHT22;24844;52.380;7.018;2023-02-01T00:31:42;5.10;99.90
39099;DHT22;24844;52.380;7.018;2023-02-01T00:34:08;5.00;99.90
39099;DHT22;24844;52.380;7.018;2023-02-01T00:36:35;5.00;99.90
39099;DHT22;24844;52.380;7.018;2023-02-01T00:39:00;5.10;99.90
39099;DHT22;24844;52.380;7.018;2023-02-01T00:41:26;4.90;99.90
39099;DHT22;24844;52.380;7.018;2023-02-01T00:43:52;4.90;99.90
39099;DHT22;24844;52.380;7.018;2023-02-01T00:46:19;5.00;99.90
39099;DHT22;24844;52.380;7.018;2023-02-01T00:48:45;5.00;99.90
39099;DHT22;24844;52.380;7.018;2023-02-01T00:51:16;4.90;99.90
39099;DHT22;24844;52.380;7.018;2023-02-01T00:53:42;5.00;99.90
39099;DHT22;24844;52.380;7.018;2023-02-01T00:56:09;4.80;99.90
39099;DHT22;24844;52.380;7.018;2023-02-01T00:58:34;4.90;99.90
39099;DHT22;24844;52.380;7.018;2023-02-01T01:01:15;4.80;99.90
39099;DHT22;24844;52.380;7.018;2023-02-01T01:03:43;5.10;99.90
39099;DHT22;24844;52.380;7.018;2023-02-01T01:06:11;4.90;99.90
39099;DHT22;24844;52.380;7.018;2023-02-01T01:08:38;5.00;99.90
39099;DHT22;24844;52.380;7.018;2023-02-01T01:11:13;5.00;99.90
39099;DHT22;24844;52.380;7.018;2023-02-01T01:13:39;4.90;99.90
39099;DHT22;24844;52.380;7.018;2023-02-01T01:16:06;5.00;99.90
39099;DHT22;24844;52.380;7.018;2023-02-01T01:18:33;4.90;99.90
39099;DHT22;24844;52.380;7.018;2023-02-01T01:20:59;5.10;99.90
39099;DHT22;24844;52.380;7.018;2023-02-01T01:23:25;4.80;99.90
39099;DHT22;24844;52.380;7.018;2023-02-01T01:25:51;4.90;99.90
39099;DHT22;24844;52.380;7.018;2023-02-01T01:28:17;4.90;99.90
39099;DHT22;24844;52.380;7.018;2023-02-01T01:30:43;4.90;99.90
39099;DHT22;24844;52.380;7.018;2023-02-01T01:33:08;4.80;99.90
39099;DHT22;24844;52.380;7.018;2023-02-01T01:35:34;5.10;99.90
39099;DHT22;24844;52.380;7.018;2023-02-01T01:38:00;5.20;99.90
39099;DHT22;24844;52.380;7.018;2023-02-01T01:40:27;5.20;99.90
39099;DHT22;24844;52.380;7.018;2023-02-01T01:42:53;5.10;99.90
39099;DHT22;24844;52.380;7.018;2023-02-01T01:45:30;5.10;99.90
39099;DHT22;24844;52.380;7.018;2023-02-01T01:47:58;5.10;99.90
39099;DHT22;24844;52.380;7.018;2023-02-01T01:50:48;5.10;99.90
39099;DHT22;24844;52.380;7.018;2023-02-01T01:53:26;5.00;99.90
39099;DHT22;24844;52.380;7.018;2023-02-01T01:55:53;5.10;99.90
39099;DHT22;24844;52.380;7.018;2023-02-01T01:58:24;5.00;99.90
39099;DHT22;24844;52.380;7.018;2023-02-01T02:00:52;4.90;99.90
39099;DHT22;24844;52.380;7.018;2023-02-01T02:03:22;5.20;99.90
39099;DHT22;24844;52.380;7.018;2023-02-01T02:05:50;5.30;99.90
39099;DHT22;24844;52.380;7.018;2023-02-01T02:08:18;5.30;99.90
39099;DHT22;24844;52.380;7.018;2023-02-01T02:10:46;5.10;99.90
39099;DHT22;24844;52.380;7.018;2023-02-01T02:13:35;5.20;99.90
39099;DHT22;24844;52.380;7.018;2023-02-01T02:32:44;5.20;99.90
39099;DHT22;24844;52.380;7.018;2023-02-01T02:35:41;5.20;99.90
39099;DHT22;24844;52.380;7.018;2023-02-01T02:40:51;5.10;99.90
39099;DHT22;24844;52.380;7.018;2023-02-01T02:43:43;5.00;99.90
39099;DHT22;24844;52.380;7.018;2023-02-01T02:49:29;4.90;99.90
39099;DHT22;24844;52.380;7.018;2023-02-01T02:52:02;5.00;99.90
39099;DHT22;24844;52.380;7.018;2023-02-01T02:54:50;5.20;99.90
39099;DHT22;24844;52.380;7.018;2023-02-01T02:57:28;5.40;99.90
39099;DHT22;24844;52.380;7.018;2023-02-01T03:00:17;5.70;99.90
39099;DHT22;24844;52.380;7.018;2023-02-01T03:03:03;5.50;99.90
39099;DHT22;24844;52.380;7.018;2023-02-01T03:05:49;5.40;99.90
39099;DHT22;24844;52.380;7.018;2023-02-01T03:08:22;5.40;99.90
39099;DHT22;24844;52.380;7.018;2023-02-01T03:13:22;5.60;99.90
39099;DHT22;24844;52.380;7.018;2023-02-01T03:18:45;5.50;99.90
39099;DHT22;24844;52.380;7.018;2023-02-01T03:21:17;5.30;99.90
39099;DHT22;24844;52.380;7.018;2023-02-01T03:23:46;5.50;99.90
39099;DHT22;24844;52.380;7.018;2023-02-01T03:26:15;5.50;99.90
39099;DHT22;24844;52.380;7.018;2023-02-01T03:28:48;5.40;99.90
39099;DHT22;24844;52.380;7.018;2023-02-01T03:31:15;5.50;99.90
39099;DHT22;24844;52.380;7.018;2023-02-01T03:33:41;5.40;99.90
39099;DHT22;24844;52.380;7.018;2023-02-01T03:38:55;5.60;99.90
39099;DHT22;24844;52.380;7.018;2023-02-01T03:41:43;5.60;99.90
39099;DHT22;24844;52.380;7.018;2023-02-01T03:47:08;5.50;99.90
39099;DHT22;24844;52.380;7.018;2023-02-01T03:49:39;5.50;99.90
39099;DHT22;24844;52.380;7.018;2023-02-01T03:52:07;5.50;99.90
39099;DHT22;24844;52.380;7.018;2023-02-01T03:54:35;5.60;99.90
39099;DHT22;24844;52.380;7.018;2023-02-01T03:57:06;5.70;99.90
39099;DHT22;24844;52.380;7.018;2023-02-01T03:59:33;5.90;99.90
39099;DHT22;24844;52.380;7.018;2023-02-01T04:01:58;5.70;99.90
39099;DHT22;24844;52.380;7.018;2023-02-01T04:04:24;5.60;99.90
39099;DHT22;24844;52.380;7.018;2023-02-01T04:06:50;5.60;99.90
39099;DHT22;24844;52.380;7.018;2023-02-01T04:09:16;5.70;99.90
39099;DHT22;24844;52.380;7.018;2023-02-01T04:11:42;5.70;99.90
39099;DHT22;24844;52.380;7.018;2023-02-01T04:14:08;5.70;99.90
39099;DHT22;24844;52.380;7.018;2023-02-01T04:16:34;5.70;99.90
39099;DHT22;24844;52.380;7.018;2023-02-01T04:19:00;5.70;99.90
39099;DHT22;24844;52.380;7.018;2023-02-01T04:21:26;5.90;99.90
39099;DHT22;24844;52.380;7.018;2023-02-01T04:23:53;5.80;99.90
39099;DHT22;24844;52.380;7.018;2023-02-01T04:26:19;6.00;99.90
39099;DHT22;24844;52.380;7.018;2023-02-01T04:28:45;5.80;99.90
39099;DHT22;24844;52.380;7.018;2023-02-01T04:31:13;5.90;99.90
39099;DHT22;24844;52.380;7.018;2023-02-01T04:33:39;5.90;99.90
39099;DHT22;24844;52.380;7.018;2023-02-01T04:36:04;5.80;99.90
39099;DHT22;24844;52.380;7.018;2023-02-01T04:38:30;5.90;99.90
39099;DHT22;24844;52.380;7.018;2023-02-01T04:40:57;5.90;99.90
39099;DHT22;24844;52.380;7.018;2023-02-01T04:43:23;5.90;99.90
39099;DHT22;24844;52.380;7.018;2023-02-01T04:45:49;5.80;99.90
39099;DHT22;24844;52.380;7.018;2023-02-01T04:48:16;5.80;99.90
39099;DHT22;24844;52.380;7.018;2023-02-01T04:50:43;5.80;99.90
39099;DHT22;24844;52.380;7.018;2023-02-01T04:53:10;6.20;99.90
39099;DHT22;24844;52.380;7.018;2023-02-01T04:55:36;5.90;99.90
39099;DHT22;24844;52.380;7.018;2023-02-01T04:58:01;5.90;99.90
39099;DHT22;24844;52.380;7.018;2023-02-01T05:00:27;5.80;99.90
39099;DHT22;24844;52.380;7.018;2023-02-01T05:02:52;5.90;99.90
39099;DHT22;24844;52.380;7.018;2023-02-01T05:05:18;5.90;99.90
39099;DHT22;24844;52.380;7.018;2023-02-01T05:07:45;5.80;99.90
39099;DHT22;24844;52.380;7.018;2023-02-01T05:10:10;5.70;99.90
39099;DHT22;24844;52.380;7.018;2023-02-01T05:12:36;5.90;99.90
39099;DHT22;24844;52.380;7.018;2023-02-01T05:15:20;5.80;99.90
39099;DHT22;24844;52.380;7.018;2023-02-01T05:17:46;6.00;99.90
39099;DHT22;24844;52.380;7.018;2023-02-01T05:20:11;6.10;99.90
39099;DHT22;24844;52.380;7.018;2023-02-01T05:22:37;5.90;99.90
39099;DHT22;24844;52.380;7.018;2023-02-01T05:25:03;5.70;99.90
39099;DHT22;24844;52.380;7.018;2023-02-01T05:27:30;5.90;99.90
39099;DHT22;24844;52.380;7.018;2023-02-01T05:29:56;6.00;99.90
39099;DHT22;24844;52.380;7.018;2023-02-01T05:32:21;6.00;99.90
39099;DHT22;24844;52.380;7.018;2023-02-01T05:34:47;6.20;99.90
39099;DHT22;24844;52.380;7.018;2023-02-01T05:37:13;6.00;99.90
39099;DHT22;24844;52.380;7.018;2023-02-01T05:39:38;6.10;99.90
39099;DHT22;24844;52.380;7.018;2023-02-01T05:42:04;5.90;99.90
39099;DHT22;24844;52.380;7.018;2023-02-01T05:44:29;5.80;99.90
39099;DHT22;24844;52.380;7.018;2023-02-01T05:46:55;5.60;99.90
39099;DHT22;24844;52.380;7.018;2023-02-01T05:49:20;5.70;99.90
39099;DHT22;24844;52.380;7.018;2023-02-01T05:51:46;5.70;99.90
39099;DHT22;24844;52.380;7.018;2023-02-01T05:54:12;5.70;99.90
39099;DHT22;24844;52.380;7.018;2023-02-01T05:56:37;5.70;99.90
39099;DHT22;24844;52.380;7.018;2023-02-01T05:59:03;5.90;99.90
39099;DHT22;24844;52.380;7.018;2023-02-01T06:01:28;5.70;99.90
39099;DHT22;24844;52.380;7.018;2023-02-01T06:03:54;5.70;99.90
39099;DHT22;24844;52.380;7.018;2023-02-01T06:06:19;5.80;99.90
39099;DHT22;24844;52.380;7.018;2023-02-01T06:08:45;5.70;99.90
39099;DHT22;24844;52.380;7.018;2023-02-01T06:11:11;5.80;99.90
39099;DHT22;24844;52.380;7.018;2023-02-01T06:13:38;5.80;99.90
39099;DHT22;24844;52.380;7.018;2023-02-01T06:16:04;5.80;99.90
39099;DHT22;24844;52.380;7.018;2023-02-01T06:18:33;5.80;99.90
39099;DHT22;24844;52.380;7.018;2023-02-01T06:20:59;6.00;99.90
39099;DHT22;24844;52.380;7.018;2023-02-01T06:23:26;5.70;99.90
39099;DHT22;24844;52.380;7.018;2023-02-01T06:25:52;5.90;99.90
39099;DHT22;24844;52.380;7.018;2023-02-01T06:28:23;6.00;99.90
39099;DHT22;24844;52.380;7.018;2023-02-01T06:30:49;6.00;99.90
39099;DHT22;24844;52.380;7.018;2023-02-01T06:33:15;6.00;99.90
39099;DHT22;24844;52.380;7.018;2023-02-01T06:35:42;6.10;99.90
39099;DHT22;24844;52.380;7.018;2023-02-01T06:38:09;6.10;99.90
39099;DHT22;24844;52.380;7.018;2023-02-01T06:40:35;6.00;99.90
39099;DHT22;24844;52.380;7.018;2023-02-01T06:43:01;6.00;99.90
39099;DHT22;24844;52.380;7.018;2023-02-01T06:45:26;6.00;99.90
39099;DHT22;24844;52.380;7.018;2023-02-01T06:47:52;6.10;99.90
39099;DHT22;24844;52.380;7.018;2023-02-01T06:50:17;6.00;99.90
39099;DHT22;24844;52.380;7.018;2023-02-01T06:52:43;6.00;99.90
39099;DHT22;24844;52.380;7.018;2023-02-01T06:55:09;6.20;99.90
39099;DHT22;24844;52.380;7.018;2023-02-01T06:57:34;6.10;99.90
39099;DHT22;24844;52.380;7.018;2023-02-01T07:00:02;6.00;99.90
39099;DHT22;24844;52.380;7.018;2023-02-01T07:02:28;6.30;99.90
39099;DHT22;24844;52.380;7.018;2023-02-01T07:04:54;6.10;99.90
39099;DHT22;24844;52.380;7.018;2023-02-01T07:07:19;6.20;99.90
39099;DHT22;24844;52.380;7.018;2023-02-01T07:09:50;6.30;99.90
39099;DHT22;24844;52.380;7.018;2023-02-01T07:12:16;6.40;99.90
39099;DHT22;24844;52.380;7.018;2023-02-01T07:14:42;6.10;99.90
39099;DHT22;24844;52.380;7.018;2023-02-01T07:17:07;6.50;99.90
39099;DHT22;24844;52.380;7.018;2023-02-01T07:19:33;6.40;99.90
39099;DHT22;24844;52.380;7.018;2023-02-01T07:21:58;6.30;99.90
39099;DHT22;24844;52.380;7.018;2023-02-01T07:24:24;6.30;99.90
39099;DHT22;24844;52.380;7.018;2023-02-01T07:26:50;6.50;99.90
39099;DHT22;24844;52.380;7.018;2023-02-01T07:29:17;6.40;99.90
39099;DHT22;24844;52.380;7.018;2023-02-01T07:31:42;6.30;99.90
39099;DHT22;24844;52.380;7.018;2023-02-01T07:34:08;6.50;99.90
39099;DHT22;24844;52.380;7.018;2023-02-01T07:36:34;6.60;99.90
39099;DHT22;24844;52.380;7.018;2023-02-01T07:39:04;6.30;99.90
39099;DHT22;24844;52.380;7.018;2023-02-01T07:41:30;6.60;99.90
39099;DHT22;24844;52.380;7.018;2023-02-01T07:43:55;6.40;99.90
39099;DHT22;24844;52.380;7.018;2023-02-01T07:46:22;6.50;99.90
39099;DHT22;24844;52.380;7.018;2023-02-01T07:48:47;6.30;99.90
39099;DHT22;24844;52.380;7.018;2023-02-01T07:51:15;6.30;99.90
39099;DHT22;24844;52.380;7.018;2023-02-01T07:53:41;6.40;99.90
39099;DHT22;24844;52.380;7.018;2023-02-01T07:56:18;6.60;99.90
39099;DHT22;24844;52.380;7.018;2023-02-01T07:58:49;6.50;99.90
39099;DHT22;24844;52.380;7.018;2023-02-01T08:01:16;6.50;99.90
39099;DHT22;24844;52.380;7.018;2023-02-01T08:03:45;6.60;99.90
39099;DHT22;24844;52.380;7.018;2023-02-01T08:06:11;6.60;99.90
39099;DHT22;24844;52.380;7.018;2023-02-01T08:08:36;6.70;99.90
39099;DHT22;24844;52.380;7.018;2023-02-01T08:11:04;6.60;99.90
39099;DHT22;24844;52.380;7.018;2023-02-01T08:13:30;6.50;99.90
39099;DHT22;24844;52.380;7.018;2023-02-01T08:16:00;6.50;99.90
39099;DHT22;24844;52.380;7.018;2023-02-01T08:18:26;6.70;99.90
39099;DHT22;24844;52.380;7.018;2023-02-01T08:20:51;6.70;99.90
39099;DHT22;24844;52.380;7.018;2023-02-01T08:23:17;6.70;99.90
39099;DHT22;24844;52.380;7.018;2023-02-01T08:25:43;6.50;99.90
39099;DHT22;24844;52.380;7.018;2023-02-01T08:28:10;6.60;99.90
39099;DHT22;24844;52.380;7.018;2023-02-01T08:30:38;6.80;99.90
39099;DHT22;24844;52.380;7.018;2023-02-01T08:33:05;6.80;99.90
39099;DHT22;24844;52.380;7.018;2023-02-01T08:35:32;7.00;99.90
39099;DHT22;24844;52.380;7.018;2023-02-01T08:37:59;7.00;99.90
39099;DHT22;24844;52.380;7.018;2023-02-01T08:40:25;7.20;99.90
39099;DHT22;24844;52.380;7.018;2023-02-01T08:42:50;7.20;99.90
39099;DHT22;24844;52.380;7.018;2023-02-01T08:45:17;7.00;99.90
39099;DHT22;24844;52.380;7.018;2023-02-01T08:47:42;7.10;99.90
39099;DHT22;24844;52.380;7.018;2023-02-01T08:50:09;7.10;99.90
39099;DHT22;24844;52.380;7.018;2023-02-01T08:52:35;7.60;99.90
39099;DHT22;24844;52.380;7.018;2023-02-01T08:55:01;7.40;99.90
39099;DHT22;24844;52.380;7.018;2023-02-01T08:57:26;7.40;99.90
39099;DHT22;24844;52.380;7.018;2023-02-01T08:59:52;7.50;99.90
39099;DHT22;24844;52.380;7.018;2023-02-01T09:02:18;7.40;99.90
39099;DHT22;24844;52.380;7.018;2023-02-01T09:04:43;7.40;99.90
39099;DHT22;24844;52.380;7.018;2023-02-01T09:07:09;7.70;99.90
39099;DHT22;24844;52.380;7.018;2023-02-01T09:09:35;7.90;99.90
39099;DHT22;24844;52.380;7.018;2023-02-01T09:12:02;7.60;99.90
39099;DHT22;24844;52.380;7.018;2023-02-01T09:14:28;7.40;99.90
39099;DHT22;24844;52.380;7.018;2023-02-01T09:16:54;7.50;99.90
39099;DHT22;24844;52.380;7.018;2023-02-01T09:19:19;7.40;99.90
39099;DHT22;24844;52.380;7.018;2023-02-01T09:21:45;7.80;99.90
39099;DHT22;24844;52.380;7.018;2023-02-01T09:24:11;7.50;99.90
39099;DHT22;24844;52.380;7.018;2023-02-01T09:26:37;7.50;99.90
39099;DHT22;24844;52.380;7.018;2023-02-01T09:29:03;7.50;99.90
39099;DHT22;24844;52.380;7.018;2023-02-01T09:31:31;7.80;99.90
39099;DHT22;24844;52.380;7.018;2023-02-01T09:33:57;7.80;99.90
39099;DHT22;24844;52.380;7.018;2023-02-01T09:36:22;7.70;99.90
39099;DHT22;24844;52.380;7.018;2023-02-01T09:38:49;7.80;99.90
39099;DHT22;24844;52.380;7.018;2023-02-01T09:44:09;7.60;99.90
39099;DHT22;24844;52.380;7.018;2023-02-01T09:46:38;7.90;99.90
39099;DHT22;24844;52.380;7.018;2023-02-01T09:49:13;7.70;99.90
39099;DHT22;24844;52.380;7.018;2023-02-01T09:51:46;7.90;99.90
39099;DHT22;24844;52.380;7.018;2023-02-01T09:54:26;8.10;99.90
39099;DHT22;24844;52.380;7.018;2023-02-01T09:57:19;8.20;99.90
39099;DHT22;24844;52.380;7.018;2023-02-01T09:59:50;8.30;99.90
39099;DHT22;24844;52.380;7.018;2023-02-01T10:02:23;8.30;99.90
39099;DHT22;24844;52.380;7.018;2023-02-01T10:04:50;8.10;99.90
39099;DHT22;24844;52.380;7.018;2023-02-01T10:07:27;8.30;99.90
39099;DHT22;24844;52.380;7.018;2023-02-01T10:10:30;8.50;99.90
39099;DHT22;24844;52.380;7.018;2023-02-01T10:13:19;8.20;99.90
39099;DHT22;24844;52.380;7.018;2023-02-01T10:18:37;8.30;99.90
39099;DHT22;24844;52.380;7.018;2023-02-01T10:21:12;8.30;99.90
39099;DHT22;24844;52.380;7.018;2023-02-01T10:26:25;8.40;99.90
39099;DHT22;24844;52.380;7.018;2023-02-01T10:29:00;8.30;99.90
39099;DHT22;24844;52.380;7.018;2023-02-01T10:31:28;8.50;99.90
39099;DHT22;24844;52.380;7.018;2023-02-01T10:33:58;8.30;99.90
39099;DHT22;24844;52.380;7.018;2023-02-01T10:36:35;8.60;99.90
39099;DHT22;24844;52.380;7.018;2023-02-01T10:39:05;8.40;99.90
39099;DHT22;24844;52.380;7.018;2023-02-01T10:41:35;8.30;99.90
39099;DHT22;24844;52.380;7.018;2023-02-01T10:44:04;8.80;99.90
39099;DHT22;24844;52.380;7.018;2023-02-01T10:46:31;8.40;99.90
39099;DHT22;24844;52.380;7.018;2023-02-01T10:49:00;8.20;99.90
39099;DHT22;24844;52.380;7.018;2023-02-01T10:51:35;8.00;99.90
39099;DHT22;24844;52.380;7.018;2023-02-01T10:54:14;7.70;99.90
39099;DHT22;24844;52.380;7.018;2023-02-01T10:56:44;7.70;99.90
39099;DHT22;24844;52.380;7.018;2023-02-01T10:59:16;7.40;99.90
39099;DHT22;24844;52.380;7.018;2023-02-01T11:01:45;7.20;99.90
39099;DHT22;24844;52.380;7.018;2023-02-01T11:04:17;7.20;99.90
39099;DHT22;24844;52.380;7.018;2023-02-01T11:06:45;7.10;99.90
39099;DHT22;24844;52.380;7.018;2023-02-01T11:14:19;7.40;99.90
39099;DHT22;24844;52.380;7.018;2023-02-01T11:16:49;7.30;99.90
39099;DHT22;24844;52.380;7.018;2023-02-01T11:19:16;7.50;99.90
39099;DHT22;24844;52.380;7.018;2023-02-01T11:21:43;7.20;99.90
39099;DHT22;24844;52.380;7.018;2023-02-01T11:24:24;7.10;99.90
39099;DHT22;24844;52.380;7.018;2023-02-01T11:26:51;7.20;99.90
39099;DHT22;24844;52.380;7.018;2023-02-01T11:29:19;7.10;99.90
39099;DHT22;24844;52.380;7.018;2023-02-01T11:31:50;7.40;99.90
39099;DHT22;24844;52.380;7.018;2023-02-01T11:34:18;7.20;99.90
39099;DHT22;24844;52.380;7.018;2023-02-01T11:36:47;7.20;99.90
39099;DHT22;24844;52.380;7.018;2023-02-01T11:44:34;7.10;99.90
39099;DHT22;24844;52.380;7.018;2023-02-01T11:49:43;7.30;99.90
39099;DHT22;24844;52.380;7.018;2023-02-01T11:52:30;7.30;99.90
39099;DHT22;24844;52.380;7.018;2023-02-01T11:57:46;7.00;99.90
39099;DHT22;24844;52.380;7.018;2023-02-01T12:03:37;7.10;99.90
39099;DHT22;24844;52.380;7.018;2023-02-01T12:09:42;6.80;99.90
39099;DHT22;24844;52.380;7.018;2023-02-01T12:12:28;6.80;99.90
39099;DHT22;24844;52.380;7.018;2023-02-01T12:20:22;7.00;99.90
39099;DHT22;24844;52.380;7.018;2023-02-01T12:25:34;7.10;99.90
39099;DHT22;24844;52.380;7.018;2023-02-01T12:31:10;7.20;99.90
39099;DHT22;24844;52.380;7.018;2023-02-01T12:33:52;7.10;99.90
39099;DHT22;24844;52.380;7.018;2023-02-01T12:36:39;7.10;99.90
39099;DHT22;24844;52.380;7.018;2023-02-01T12:42:23;7.40;99.90
39099;DHT22;24844;52.380;7.018;2023-02-01T12:44:54;7.30;99.90
39099;DHT22;24844;52.380;7.018;2023-02-01T12:47:47;7.30;99.90
39099;DHT22;24844;52.380;7.018;2023-02-01T12:50:21;7.10;99.90
39099;DHT22;24844;52.380;7.018;2023-02-01T12:52:50;7.50;99.90
39099;DHT22;24844;52.380;7.018;2023-02-01T12:58:32;7.10;99.90
39099;DHT22;24844;52.380;7.018;2023-02-01T13:01:08;6.80;99.90
39099;DHT22;24844;52.380;7.018;2023-02-01T13:03:50;6.70;99.90
39099;DHT22;24844;52.380;7.018;2023-02-01T13:06:39;6.70;99.90
39099;DHT22;24844;52.380;7.018;2023-02-01T13:09:37;6.70;99.90
39099;DHT22;24844;52.380;7.018;2023-02-01T13:12:17;6.80;99.90
39099;DHT22;24844;52.380;7.018;2023-02-01T13:14:53;6.80;99.90
39099;DHT22;24844;52.380;7.018;2023-02-01T13:17:26;6.80;99.90
39099;DHT22;24844;52.380;7.018;2023-02-01T13:20:04;6.70;99.90
39099;DHT22;24844;52.380;7.018;2023-02-01T13:22:47;6.60;99.90
39099;DHT22;24844;52.380;7.018;2023-02-01T13:25:29;6.60;99.90
39099;DHT22;24844;52.380;7.018;2023-02-01T13:28:04;6.70;99.90
39099;DHT22;24844;52.380;7.018;2023-02-01T13:39:19;6.60;99.90
39099;DHT22;24844;52.380;7.018;2023-02-01T13:42:00;6.50;99.90
39099;DHT22;24844;52.380;7.018;2023-02-01T13:44:39;6.50;99.90
39099;DHT22;24844;52.380;7.018;2023-02-01T13:49:41;6.50;99.90
39099;DHT22;24844;52.380;7.018;2023-02-01T13:52:34;6.60;99.90
39099;DHT22;24844;52.380;7.018;2023-02-01T13:57:46;6.40;99.90
39099;DHT22;24844;52.380;7.018;2023-02-01T14:00:30;6.30;99.90
39099;DHT22;24844;52.380;7.018;2023-02-01T14:08:13;6.40;99.90
39099;DHT22;24844;52.380;7.018;2023-02-01T14:10:52;6.60;99.90
39099;DHT22;24844;52.380;7.018;2023-02-01T14:13:41;6.70;99.90
39099;DHT22;24844;52.380;7.018;2023-02-01T14:24:02;6.90;99.90
39099;DHT22;24844;52.380;7.018;2023-02-01T14:26:42;6.90;99.90
39099;DHT22;24844;52.380;7.018;2023-02-01T14:37:05;6.90;99.90
39099;DHT22;24844;52.380;7.018;2023-02-01T14:39:32;7.00;99.90
39099;DHT22;24844;52.380;7.018;2023-02-01T14:42:05;7.00;99.90
39099;DHT22;24844;52.380;7.018;2023-02-01T14:44:35;7.00;99.90
39099;DHT22;24844;52.380;7.018;2023-02-01T14:49:58;6.90;99.90
39099;DHT22;24844;52.380;7.018;2023-02-01T14:52:40;6.90;99.90
39099;DHT22;24844;52.380;7.018;2023-02-01T14:55:17;6.90;99.90
39099;DHT22;24844;52.380;7.018;2023-02-01T14:57:46;6.90;99.90
39099;DHT22;24844;52.380;7.018;2023-02-01T15:02:46;6.80;99.90
39099;DHT22;24844;52.380;7.018;2023-02-01T15:05:30;6.80;99.90
39099;DHT22;24844;52.380;7.018;2023-02-01T15:08:00;6.90;99.90
39099;DHT22;24844;52.380;7.018;2023-02-01T15:10:30;6.80;99.90
39099;DHT22;24844;52.380;7.018;2023-02-01T15:12:56;7.00;99.90
39099;DHT22;24844;52.380;7.018;2023-02-01T15:15:23;6.80;99.90
39099;DHT22;24844;52.380;7.018;2023-02-01T15:17:54;6.90;99.90
39099;DHT22;24844;52.380;7.018;2023-02-01T15:20:22;6.90;99.90
39099;DHT22;24844;52.380;7.018;2023-02-01T15:23:02;6.80;99.90
39099;DHT22;24844;52.380;7.018;2023-02-01T15:25:32;6.80;99.90
39099;DHT22;24844;52.380;7.018;2023-02-01T15:27:58;6.80;99.90
39099;DHT22;24844;52.380;7.018;2023-02-01T15:30:26;6.70;99.90
39099;DHT22;24844;52.380;7.018;2023-02-01T15:35:43;6.70;99.90
39099;DHT22;24844;52.380;7.018;2023-02-01T15:38:31;6.60;99.90
39099;DHT22;24844;52.380;7.018;2023-02-01T15:43:27;6.60;99.90
39099;DHT22;24844;52.380;7.018;2023-02-01T15:46:02;6.60;99.90
39099;DHT22;24844;52.380;7.018;2023-02-01T15:48:34;6.60;99.90
39099;DHT22;24844;52.380;7.018;2023-02-01T15:51:01;6.60;99.90
39099;DHT22;24844;52.380;7.018;2023-02-01T15:53:27;6.50;99.90
39099;DHT22;24844;52.380;7.018;2023-02-01T15:55:58;6.50;99.90
39099;DHT22;24844;52.380;7.018;2023-02-01T15:58:26;6.50;99.90
39099;DHT22;24844;52.380;7.018;2023-02-01T16:00:55;6.50;99.90
39099;DHT22;24844;52.380;7.018;2023-02-01T16:03:39;6.50;99.90
39099;DHT22;24844;52.380;7.018;2023-02-01T16:08:55;6.40;99.90
39099;DHT22;24844;52.380;7.018;2023-02-01T16:11:32;6.40;99.90
39099;DHT22;24844;52.380;7.018;2023-02-01T16:13:59;6.30;99.90
39099;DHT22;24844;52.380;7.018;2023-02-01T16:16:27;6.40;99.90
39099;DHT22;24844;52.380;7.018;2023-02-01T16:18:53;6.40;99.90
39099;DHT22;24844;52.380;7.018;2023-02-01T16:21:19;6.40;99.90
39099;DHT22;24844;52.380;7.018;2023-02-01T16:23:49;6.50;99.90
39099;DHT22;24844;52.380;7.018;2023-02-01T16:26:16;6.50;99.90
39099;DHT22;24844;52.380;7.018;2023-02-01T16:28:41;6.40;99.90
39099;DHT22;24844;52.380;7.018;2023-02-01T16:31:18;6.40;99.90
39099;DHT22;24844;52.380;7.018;2023-02-01T16:33:49;6.40;99.90
39099;DHT22;24844;52.380;7.018;2023-02-01T16:36:16;6.40;99.90
39099;DHT22;24844;52.380;7.018;2023-02-01T16:38:42;6.30;99.90
39099;DHT22;24844;52.380;7.018;2023-02-01T16:41:16;6.40;99.90
39099;DHT22;24844;52.380;7.018;2023-02-01T16:43:42;6.40;99.90
39099;DHT22;24844;52.380;7.018;2023-02-01T16:46:17;6.50;99.90
39099;DHT22;24844;52.380;7.018;2023-02-01T16:48:48;6.40;99.90
39099;DHT22;24844;52.380;7.018;2023-02-01T16:51:16;6.40;99.90
39099;DHT22;24844;52.380;7.018;2023-02-01T16:53:42;6.40;99.90
39099;DHT22;24844;52.380;7.018;2023-02-01T16:59:09;6.40;99.90
39099;DHT22;24844;52.380;7.018;2023-02-01T17:01:35;6.30;99.90
39099;DHT22;24844;52.380;7.018;2023-02-01T17:04:03;6.40;99.90
39099;DHT22;24844;52.380;7.018;2023-02-01T17:06:29;6.40;99.90
39099;DHT22;24844;52.380;7.018;2023-02-01T17:08:59;6.40;99.90
39099;DHT22;24844;52.380;7.018;2023-02-01T17:11:26;6.30;99.90
39099;DHT22;24844;52.380;7.018;2023-02-01T17:13:52;6.40;99.90
39099;DHT22;24844;52.380;7.018;2023-02-01T17:18:46;6.40;99.90
39099;DHT22;24844;52.380;7.018;2023-02-01T17:21:12;6.40;99.90
39099;DHT22;24844;52.380;7.018;2023-02-01T17:23:38;6.40;99.90
39099;DHT22;24844;52.380;7.018;2023-02-01T17:26:04;6.40;99.90
39099;DHT22;24844;52.380;7.018;2023-02-01T17:28:29;6.40;99.90
39099;DHT22;24844;52.380;7.018;2023-02-01T17:30:55;6.40;99.90
39099;DHT22;24844;52.380;7.018;2023-02-01T17:33:28;6.30;99.90
39099;DHT22;24844;52.380;7.018;2023-02-01T17:35:55;6.30;99.90
39099;DHT22;24844;52.380;7.018;2023-02-01T17:38:23;6.30;99.90
39099;DHT22;24844;52.380;7.018;2023-02-01T17:40:48;6.30;99.90
39099;DHT22;24844;52.380;7.018;2023-02-01T17:43:16;6.30;99.90
39099;DHT22;24844;52.380;7.018;2023-02-01T17:45:46;6.20;99.90
39099;DHT22;24844;52.380;7.018;2023-02-01T17:48:17;6.30;99.90
39099;DHT22;24844;52.380;7.018;2023-02-01T17:50:44;6.20;99.90
39099;DHT22;24844;52.380;7.018;2023-02-01T17:53:12;6.20;99.90
39099;DHT22;24844;52.380;7.018;2023-02-01T17:55:41;6.10;99.90
39099;DHT22;24844;52.380;7.018;2023-02-01T17:58:10;6.10;99.90
39099;DHT22;24844;52.380;7.018;2023-02-01T18:00:35;6.00;99.90
39099;DHT22;24844;52.380;7.018;2023-02-01T18:03:01;6.10;99.90
39099;DHT22;24844;52.380;7.018;2023-02-01T18:05:54;6.10;99.90
39099;DHT22;24844;52.380;7.018;2023-02-01T18:08:21;6.10;99.90
39099;DHT22;24844;52.380;7.018;2023-02-01T18:10:52;6.10;99.90
39099;DHT22;24844;52.380;7.018;2023-02-01T18:13:19;6.20;99.90
39099;DHT22;24844;52.380;7.018;2023-02-01T18:15:44;6.20;99.90
39099;DHT22;24844;52.380;7.018;2023-02-01T18:18:10;6.10;99.90